sensor_id;sensor_type;location;lat;lon;timestamp;P1;durP1;ratioP1;P2;durP2;ratioP2
20945;SDS011;10632;51.276;7.116;2024-03-08T00:01:01;3.67;;;1.87;;
20945;SDS011;10632;51.276;7.116;2024-03-08T00:03:33;5.87;;;2.57;;
20945;SDS011;10632;51.276;7.116;2024-03-08T00:06:00;4.97;;;1.97;;
20945;SDS011;10632;51.276;7.116;2024-03-08T00:08:29;5.00;;;1.97;;
20945;SDS011;10632;51.276;7.116;2024-03-08T00:10:56;2.57;;;1.40;;
20945;SDS011;10632;51.276;7.116;2024-03-08T00:13:23;9.30;;;2.50;;
20945;SDS011;10632;51.276;7.116;2024-03-08T00:15:51;2.50;;;1.50;;
20945;SDS011;10632;51.276;7.116;2024-03-08T00:18:18;3.70;;;2.13;;
20945;SDS011;10632;51.276;7.116;2024-03-08T00:20:46;6.83;;;2.47;;
20945;SDS011;10632;51.276;7.116;2024-03-08T00:23:13;6.00;;;2.00;;
20945;SDS011;10632;51.276;7.116;2024-03-08T00:25:40;8.73;;;2.53;;
20945;SDS011;10632;51.276;7.116;2024-03-08T00:28:07;5.47;;;2.30;;
20945;SDS011;10632;51.276;7.116;2024-03-08T00:30:38;4.10;;;1.80;;
20945;SDS011;10632;51.276;7.116;2024-03-08T00:33:05;10.23;;;2.40;;
20945;SDS011;10632;51.276;7.116;2024-03-08T00:35:32;4.00;;;1.57;;
20945;SDS011;10632;51.276;7.116;2024-03-08T00:38:00;2.67;;;1.70;;
20945;SDS011;10632;51.276;7.116;2024-03-08T00:40:27;5.53;;;2.00;;
20945;SDS011;10632;51.276;7.116;2024-03-08T00:42:54;6.70;;;2.23;;
20945;SDS011;10632;51.276;7.116;2024-03-08T00:45:21;7.20;;;2.10;;
20945;SDS011;10632;51.276;7.116;2024-03-08T00:47:48;3.37;;;1.67;;
20945;SDS011;10632;51.276;7.116;2024-03-08T00:50:15;4.83;;;2.50;;
20945;SDS011;10632;51.276;7.116;2024-03-08T00:52:43;5.07;;;2.37;;
20945;SDS011;10632;51.276;7.116;2024-03-08T00:55:11;6.37;;;2.07;;
20945;SDS011;10632;51.276;7.116;2024-03-08T00:57:38;5.07;;;2.27;;
20945;SDS011;10632;51.276;7.116;2024-03-08T01:00:06;5.73;;;2.03;;
20945;SDS011;10632;51.276;7.116;2024-03-08T01:02:36;4.17;;;2.47;;
20945;SDS011;10632;51.276;7.116;2024-03-08T01:05:04;8.23;;;3.40;;
20945;SDS011;10632;51.276;7.116;2024-03-08T01:07:32;5.17;;;2.40;;
20945;SDS011;10632;51.276;7.116;2024-03-08T01:09:59;12.00;;;3.00;;
20945;SDS011;10632;51.276;7.116;2024-03-08T01:12:28;2.87;;;1.70;;
20945;SDS011;10632;51.276;7.116;2024-03-08T01:14:55;4.47;;;2.07;;
20945;SDS011;10632;51.276;7.116;2024-03-08T01:17:23;5.70;;;2.00;;
20945;SDS011;10632;51.276;7.116;2024-03-08T01:19:50;4.60;;;2.33;;
20945;SDS011;10632;51.276;7.116;2024-03-08T01:22:18;5.37;;;2.17;;
20945;SDS011;10632;51.276;7.116;2024-03-08T01:24:45;5.30;;;1.63;;
20945;SDS011;10632;51.276;7.116;2024-03-08T01:27:12;5.17;;;1.97;;
20945;SDS011;10632;51.276;7.116;2024-03-08T01:29:40;3.10;;;1.80;;
20945;SDS011;10632;51.276;7.116;2024-03-08T01:32:07;9.30;;;2.03;;
20945;SDS011;10632;51.276;7.116;2024-03-08T01:34:34;8.93;;;1.97;;
20945;SDS011;10632;51.276;7.116;2024-03-08T01:37:01;5.80;;;2.87;;
20945;SDS011;10632;51.276;7.116;2024-03-08T01:39:28;3.37;;;1.77;;
20945;SDS011;10632;51.276;7.116;2024-03-08T01:41:58;5.60;;;2.03;;
20945;SDS011;10632;51.276;7.116;2024-03-08T01:44:25;8.23;;;1.80;;
20945;SDS011;10632;51.276;7.116;2024-03-08T01:46:54;6.23;;;1.67;;
20945;SDS011;10632;51.276;7.116;2024-03-08T01:49:21;5.10;;;2.10;;
20945;SDS011;10632;51.276;7.116;2024-03-08T01:51:48;7.07;;;2.33;;
20945;SDS011;10632;51.276;7.116;2024-03-08T01:54:16;4.90;;;2.33;;
20945;SDS011;10632;51.276;7.116;2024-03-08T01:56:44;7.57;;;2.30;;
20945;SDS011;10632;51.276;7.116;2024-03-08T01:59:12;5.47;;;1.77;;
20945;SDS011;10632;51.276;7.116;2024-03-08T02:01:39;7.17;;;2.57;;
20945;SDS011;10632;51.276;7.116;2024-03-08T02:04:08;5.03;;;2.30;;
20945;SDS011;10632;51.276;7.116;2024-03-08T02:06:36;5.47;;;1.83;;
20945;SDS011;10632;51.276;7.116;2024-03-08T02:09:03;3.80;;;1.93;;
20945;SDS011;10632;51.276;7.116;2024-03-08T02:11:32;2.70;;;1.90;;
20945;SDS011;10632;51.276;7.116;2024-03-08T02:14:01;5.13;;;1.60;;
20945;SDS011;10632;51.276;7.116;2024-03-08T02:16:29;3.03;;;1.60;;
20945;SDS011;10632;51.276;7.116;2024-03-08T02:18:55;5.77;;;2.13;;
20945;SDS011;10632;51.276;7.116;2024-03-08T02:21:26;4.57;;;1.60;;
20945;SDS011;10632;51.276;7.116;2024-03-08T02:23:54;8.13;;;2.60;;
20945;SDS011;10632;51.276;7.116;2024-03-08T02:26:22;7.23;;;2.27;;
20945;SDS011;10632;51.276;7.116;2024-03-08T02:28:49;7.90;;;2.33;;
20945;SDS011;10632;51.276;7.116;2024-03-08T02:31:16;6.13;;;2.17;;
20945;SDS011;10632;51.276;7.116;2024-03-08T02:33:42;6.17;;;2.37;;
20945;SDS011;10632;51.276;7.116;2024-03-08T02:36:11;3.77;;;2.13;;
20945;SDS011;10632;51.276;7.116;2024-03-08T02:38:40;4.63;;;2.23;;
20945;SDS011;10632;51.276;7.116;2024-03-08T02:41:07;3.77;;;2.20;;
20945;SDS011;10632;51.276;7.116;2024-03-08T02:43:34;11.20;;;2.93;;
20945;SDS011;10632;51.276;7.116;2024-03-08T02:46:01;4.23;;;2.33;;
20945;SDS011;10632;51.276;7.116;2024-03-08T02:48:28;6.40;;;2.27;;
20945;SDS011;10632;51.276;7.116;2024-03-08T02:50:55;4.67;;;2.53;;
20945;SDS011;10632;51.276;7.116;2024-03-08T02:53:22;8.97;;;2.60;;
20945;SDS011;10632;51.276;7.116;2024-03-08T02:55:51;2.70;;;1.80;;
20945;SDS011;10632;51.276;7.116;2024-03-08T02:58:18;8.23;;;2.13;;
20945;SDS011;10632;51.276;7.116;2024-03-08T03:00:45;5.10;;;1.60;;
20945;SDS011;10632;51.276;7.116;2024-03-08T03:03:12;5.63;;;1.40;;
20945;SDS011;10632;51.276;7.116;2024-03-08T03:05:38;6.63;;;2.20;;
20945;SDS011;10632;51.276;7.116;2024-03-08T03:08:06;6.20;;;2.03;;
20945;SDS011;10632;51.276;7.116;2024-03-08T03:10:33;6.70;;;2.63;;
20945;SDS011;10632;51.276;7.116;2024-03-08T03:13:02;4.60;;;2.17;;
20945;SDS011;10632;51.276;7.116;2024-03-08T03:15:30;7.13;;;2.83;;
20945;SDS011;10632;51.276;7.116;2024-03-08T03:17:58;8.57;;;2.30;;
20945;SDS011;10632;51.276;7.116;2024-03-08T03:20:25;3.97;;;2.07;;
20945;SDS011;10632;51.276;7.116;2024-03-08T03:22:57;7.63;;;2.60;;
20945;SDS011;10632;51.276;7.116;2024-03-08T03:25:26;8.87;;;2.10;;
20945;SDS011;10632;51.276;7.116;2024-03-08T03:27:59;5.60;;;2.47;;
20945;SDS011;10632;51.276;7.116;2024-03-08T03:30:28;6.13;;;1.90;;
20945;SDS011;10632;51.276;7.116;2024-03-08T03:32:58;12.30;;;2.87;;
20945;SDS011;10632;51.276;7.116;2024-03-08T03:35:26;8.17;;;2.17;;
20945;SDS011;10632;51.276;7.116;2024-03-08T03:37:54;8.00;;;2.83;;
20945;SDS011;10632;51.276;7.116;2024-03-08T03:40:27;7.57;;;2.83;;
20945;SDS011;10632;51.276;7.116;2024-03-08T03:42:54;4.67;;;2.00;;
20945;SDS011;10632;51.276;7.116;2024-03-08T03:45:21;4.57;;;2.13;;
20945;SDS011;10632;51.276;7.116;2024-03-08T03:47:50;6.00;;;2.27;;
20945;SDS011;10632;51.276;7.116;2024-03-08T03:50:17;6.47;;;2.60;;
20945;SDS011;10632;51.276;7.116;2024-03-08T03:52:45;4.50;;;2.60;;
20945;SDS011;10632;51.276;7.116;2024-03-08T03:55:12;4.43;;;1.90;;
20945;SDS011;10632;51.276;7.116;2024-03-08T03:57:39;3.70;;;2.30;;
20945;SDS011;10632;51.276;7.116;2024-03-08T04:00:06;4.70;;;1.97;;
20945;SDS011;10632;51.276;7.116;2024-03-08T04:02:35;7.10;;;2.37;;
20945;SDS011;10632;51.276;7.116;2024-03-08T04:05:05;6.33;;;2.33;;
20945;SDS011;10632;51.276;7.116;2024-03-08T04:07:33;7.33;;;2.33;;
20945;SDS011;10632;51.276;7.116;2024-03-08T04:10:00;5.17;;;2.03;;
20945;SDS011;10632;51.276;7.116;2024-03-08T04:12:27;5.37;;;2.13;;
20945;SDS011;10632;51.276;7.116;2024-03-08T04:14:55;4.40;;;1.47;;
20945;SDS011;10632;51.276;7.116;2024-03-08T04:17:22;4.47;;;2.23;;
20945;SDS011;10632;51.276;7.116;2024-03-08T04:19:50;3.00;;;1.37;;
20945;SDS011;10632;51.276;7.116;2024-03-08T04:22:19;5.70;;;2.63;;
20945;SDS011;10632;51.276;7.116;2024-03-08T04:24:46;9.40;;;1.97;;
20945;SDS011;10632;51.276;7.116;2024-03-08T04:27:15;8.60;;;2.40;;
20945;SDS011;10632;51.276;7.116;2024-03-08T04:29:44;6.20;;;2.13;;
20945;SDS011;10632;51.276;7.116;2024-03-08T04:32:11;5.83;;;2.00;;
20945;SDS011;10632;51.276;7.116;2024-03-08T04:34:38;5.33;;;2.00;;
20945;SDS011;10632;51.276;7.116;2024-03-08T04:37:05;3.20;;;2.13;;
20945;SDS011;10632;51.276;7.116;2024-03-08T04:39:37;4.90;;;2.37;;
20945;SDS011;10632;51.276;7.116;2024-03-08T04:42:04;6.90;;;2.20;;
20945;SDS011;10632;51.276;7.116;2024-03-08T04:44:35;5.23;;;2.03;;
20945;SDS011;10632;51.276;7.116;2024-03-08T04:47:04;8.03;;;2.27;;
20945;SDS011;10632;51.276;7.116;2024-03-08T04:49:32;5.00;;;1.77;;
20945;SDS011;10632;51.276;7.116;2024-03-08T04:52:00;7.57;;;2.10;;
20945;SDS011;10632;51.276;7.116;2024-03-08T04:54:28;3.37;;;1.27;;
20945;SDS011;10632;51.276;7.116;2024-03-08T04:56:56;7.17;;;2.43;;
20945;SDS011;10632;51.276;7.116;2024-03-08T04:59:25;5.57;;;2.37;;
20945;SDS011;10632;51.276;7.116;2024-03-08T05:01:54;7.20;;;2.70;;
20945;SDS011;10632;51.276;7.116;2024-03-08T05:04:21;7.07;;;2.47;;
20945;SDS011;10632;51.276;7.116;2024-03-08T05:06:48;7.53;;;1.57;;
20945;SDS011;10632;51.276;7.116;2024-03-08T05:09:15;4.07;;;1.63;;
20945;SDS011;10632;51.276;7.116;2024-03-08T05:11:44;10.80;;;2.27;;
20945;SDS011;10632;51.276;7.116;2024-03-08T05:14:13;9.33;;;2.97;;
20945;SDS011;10632;51.276;7.116;2024-03-08T05:16:42;10.17;;;2.83;;
20945;SDS011;10632;51.276;7.116;2024-03-08T05:19:09;4.97;;;2.30;;
20945;SDS011;10632;51.276;7.116;2024-03-08T05:21:35;2.43;;;1.80;;
20945;SDS011;10632;51.276;7.116;2024-03-08T05:24:02;3.70;;;2.00;;
20945;SDS011;10632;51.276;7.116;2024-03-08T05:26:30;5.83;;;1.77;;
20945;SDS011;10632;51.276;7.116;2024-03-08T05:28:58;5.40;;;2.30;;
20945;SDS011;10632;51.276;7.116;2024-03-08T05:31:30;5.53;;;2.23;;
20945;SDS011;10632;51.276;7.116;2024-03-08T05:34:02;5.30;;;2.27;;
20945;SDS011;10632;51.276;7.116;2024-03-08T05:36:29;6.10;;;2.57;;
20945;SDS011;10632;51.276;7.116;2024-03-08T05:38:57;10.20;;;2.13;;
20945;SDS011;10632;51.276;7.116;2024-03-08T05:41:24;9.77;;;3.60;;
20945;SDS011;10632;51.276;7.116;2024-03-08T05:43:51;4.73;;;1.37;;
20945;SDS011;10632;51.276;7.116;2024-03-08T05:46:18;7.23;;;2.40;;
20945;SDS011;10632;51.276;7.116;2024-03-08T05:48:47;4.17;;;2.43;;
20945;SDS011;10632;51.276;7.116;2024-03-08T05:51:13;3.80;;;1.83;;
20945;SDS011;10632;51.276;7.116;2024-03-08T05:53:41;2.87;;;1.17;;
20945;SDS011;10632;51.276;7.116;2024-03-08T05:56:08;14.30;;;2.57;;
20945;SDS011;10632;51.276;7.116;2024-03-08T05:58:35;4.63;;;2.13;;
20945;SDS011;10632;51.276;7.116;2024-03-08T06:01:02;8.37;;;2.40;;
20945;SDS011;10632;51.276;7.116;2024-03-08T06:03:32;4.43;;;2.17;;
20945;SDS011;10632;51.276;7.116;2024-03-08T06:06:01;4.87;;;2.67;;
20945;SDS011;10632;51.276;7.116;2024-03-08T06:08:28;6.27;;;1.90;;
20945;SDS011;10632;51.276;7.116;2024-03-08T06:10:54;5.93;;;2.30;;
20945;SDS011;10632;51.276;7.116;2024-03-08T06:13:21;5.60;;;2.50;;
20945;SDS011;10632;51.276;7.116;2024-03-08T06:15:48;6.57;;;2.60;;
20945;SDS011;10632;51.276;7.116;2024-03-08T06:18:15;6.93;;;2.37;;
20945;SDS011;10632;51.276;7.116;2024-03-08T06:20:42;4.87;;;2.33;;
20945;SDS011;10632;51.276;7.116;2024-03-08T06:23:12;10.57;;;3.50;;
20945;SDS011;10632;51.276;7.116;2024-03-08T06:25:42;5.37;;;2.47;;
20945;SDS011;10632;51.276;7.116;2024-03-08T06:28:09;4.73;;;1.87;;
20945;SDS011;10632;51.276;7.116;2024-03-08T06:30:36;3.67;;;1.93;;
20945;SDS011;10632;51.276;7.116;2024-03-08T06:33:03;6.57;;;2.87;;
20945;SDS011;10632;51.276;7.116;2024-03-08T06:35:30;10.00;;;1.80;;
20945;SDS011;10632;51.276;7.116;2024-03-08T06:37:57;7.97;;;2.17;;
20945;SDS011;10632;51.276;7.116;2024-03-08T06:40:26;10.03;;;1.63;;
20945;SDS011;10632;51.276;7.116;2024-03-08T06:42:53;7.13;;;2.00;;
20945;SDS011;10632;51.276;7.116;2024-03-08T06:45:20;7.43;;;2.67;;
20945;SDS011;10632;51.276;7.116;2024-03-08T06:47:48;5.03;;;2.73;;
20945;SDS011;10632;51.276;7.116;2024-03-08T06:50:15;5.00;;;1.77;;
20945;SDS011;10632;51.276;7.116;2024-03-08T06:52:42;5.90;;;2.83;;
20945;SDS011;10632;51.276;7.116;2024-03-08T06:55:13;6.70;;;2.70;;
20945;SDS011;10632;51.276;7.116;2024-03-08T06:57:41;4.33;;;2.40;;
20945;SDS011;10632;51.276;7.116;2024-03-08T07:00:08;4.97;;;2.30;;
20945;SDS011;10632;51.276;7.116;2024-03-08T07:02:38;9.03;;;3.67;;
20945;SDS011;10632;51.276;7.116;2024-03-08T07:05:07;7.37;;;2.77;;
20945;SDS011;10632;51.276;7.116;2024-03-08T07:07:35;7.40;;;2.10;;
20945;SDS011;10632;51.276;7.116;2024-03-08T07:10:02;8.97;;;2.83;;
20945;SDS011;10632;51.276;7.116;2024-03-08T07:12:29;5.17;;;2.30;;
20945;SDS011;10632;51.276;7.116;2024-03-08T07:14:59;7.07;;;2.87;;
20945;SDS011;10632;51.276;7.116;2024-03-08T07:17:26;7.23;;;2.80;;
20945;SDS011;10632;51.276;7.116;2024-03-08T07:19:52;6.50;;;2.73;;
20945;SDS011;10632;51.276;7.116;2024-03-08T07:22:20;4.93;;;2.27;;
20945;SDS011;10632;51.276;7.116;2024-03-08T07:24:48;7.43;;;3.23;;
20945;SDS011;10632;51.276;7.116;2024-03-08T07:27:30;8.97;;;2.70;;
20945;SDS011;10632;51.276;7.116;2024-03-08T07:29:58;5.17;;;2.30;;
20945;SDS011;10632;51.276;7.116;2024-03-08T07:32:25;5.63;;;2.80;;
20945;SDS011;10632;51.276;7.116;2024-03-08T07:34:54;7.77;;;3.10;;
20945;SDS011;10632;51.276;7.116;2024-03-08T07:37:21;4.67;;;2.20;;
20945;SDS011;10632;51.276;7.116;2024-03-08T07:39:48;9.17;;;3.13;;
20945;SDS011;10632;51.276;7.116;2024-03-08T07:42:15;6.07;;;2.67;;
20945;SDS011;10632;51.276;7.116;2024-03-08T07:44:42;7.97;;;3.47;;
20945;SDS011;10632;51.276;7.116;2024-03-08T07:47:12;8.37;;;2.90;;
20945;SDS011;10632;51.276;7.116;2024-03-08T07:49:39;9.30;;;3.63;;
20945;SDS011;10632;51.276;7.116;2024-03-08T07:52:06;9.23;;;3.33;;
20945;SDS011;10632;51.276;7.116;2024-03-08T07:54:33;7.23;;;3.13;;
20945;SDS011;10632;51.276;7.116;2024-03-08T07:57:01;9.63;;;3.20;;
20945;SDS011;10632;51.276;7.116;2024-03-08T07:59:29;8.17;;;3.30;;
20945;SDS011;10632;51.276;7.116;2024-03-08T08:01:56;6.30;;;2.53;;
20945;SDS011;10632;51.276;7.116;2024-03-08T08:04:26;8.33;;;3.50;;
20945;SDS011;10632;51.276;7.116;2024-03-08T08:06:53;9.73;;;3.30;;
20945;SDS011;10632;51.276;7.116;2024-03-08T08:09:21;12.33;;;3.60;;
20945;SDS011;10632;51.276;7.116;2024-03-08T08:11:53;9.07;;;3.33;;
20945;SDS011;10632;51.276;7.116;2024-03-08T08:14:20;12.50;;;3.80;;
20945;SDS011;10632;51.276;7.116;2024-03-08T08:16:49;9.05;;;3.42;;
20945;SDS011;10632;51.276;7.116;2024-03-08T08:19:17;13.57;;;3.97;;
20945;SDS011;10632;51.276;7.116;2024-03-08T08:21:47;9.75;;;3.72;;
20945;SDS011;10632;51.276;7.116;2024-03-08T08:24:14;14.23;;;2.78;;
20945;SDS011;10632;51.276;7.116;2024-03-08T08:26:41;8.80;;;2.92;;
20945;SDS011;10632;51.276;7.116;2024-03-08T08:29:09;12.73;;;4.00;;
20945;SDS011;10632;51.276;7.116;2024-03-08T08:31:36;9.23;;;3.63;;
20945;SDS011;10632;51.276;7.116;2024-03-08T08:34:03;16.30;;;4.05;;
20945;SDS011;10632;51.276;7.116;2024-03-08T08:36:32;7.82;;;3.45;;
20945;SDS011;10632;51.276;7.116;2024-03-08T08:39:00;11.98;;;4.25;;
20945;SDS011;10632;51.276;7.116;2024-03-08T08:41:28;17.35;;;3.88;;
20945;SDS011;10632;51.276;7.116;2024-03-08T08:43:55;11.18;;;3.45;;
20945;SDS011;10632;51.276;7.116;2024-03-08T08:46:22;7.93;;;2.70;;
20945;SDS011;10632;51.276;7.116;2024-03-08T08:48:49;10.38;;;3.80;;
20945;SDS011;10632;51.276;7.116;2024-03-08T08:51:17;11.10;;;3.47;;
20945;SDS011;10632;51.276;7.116;2024-03-08T08:53:44;9.75;;;3.15;;
20945;SDS011;10632;51.276;7.116;2024-03-08T08:56:14;12.63;;;3.20;;
20945;SDS011;10632;51.276;7.116;2024-03-08T08:58:41;8.60;;;4.00;;
20945;SDS011;10632;51.276;7.116;2024-03-08T09:01:08;9.50;;;3.15;;
20945;SDS011;10632;51.276;7.116;2024-03-08T09:03:35;11.63;;;3.72;;
20945;SDS011;10632;51.276;7.116;2024-03-08T09:06:02;9.73;;;3.25;;
20945;SDS011;10632;51.276;7.116;2024-03-08T09:08:30;8.85;;;3.83;;
20945;SDS011;10632;51.276;7.116;2024-03-08T09:10:57;9.70;;;3.15;;
20945;SDS011;10632;51.276;7.116;2024-03-08T09:13:26;11.98;;;4.38;;
20945;SDS011;10632;51.276;7.116;2024-03-08T09:15:53;10.57;;;3.47;;
20945;SDS011;10632;51.276;7.116;2024-03-08T09:18:20;9.60;;;3.50;;
20945;SDS011;10632;51.276;7.116;2024-03-08T09:20:47;9.27;;;3.33;;
20945;SDS011;10632;51.276;7.116;2024-03-08T09:23:19;10.65;;;3.28;;
20945;SDS011;10632;51.276;7.116;2024-03-08T09:25:46;10.48;;;3.70;;
20945;SDS011;10632;51.276;7.116;2024-03-08T09:28:15;10.40;;;4.00;;
20945;SDS011;10632;51.276;7.116;2024-03-08T09:45:20;8.30;;;2.92;;
20945;SDS011;10632;51.276;7.116;2024-03-08T09:47:48;7.60;;;3.22;;
20945;SDS011;10632;51.276;7.116;2024-03-08T09:50:16;11.98;;;3.10;;
20945;SDS011;10632;51.276;7.116;2024-03-08T09:52:43;9.65;;;3.22;;
20945;SDS011;10632;51.276;7.116;2024-03-08T09:55:13;11.18;;;4.05;;
20945;SDS011;10632;51.276;7.116;2024-03-08T09:57:42;12.40;;;3.90;;
20945;SDS011;10632;51.276;7.116;2024-03-08T10:00:36;9.07;;;2.95;;
20945;SDS011;10632;51.276;7.116;2024-03-08T10:03:03;10.38;;;3.45;;
20945;SDS011;10632;51.276;7.116;2024-03-08T10:05:31;10.05;;;3.28;;
20945;SDS011;10632;51.276;7.116;2024-03-08T10:08:00;8.10;;;2.75;;
20945;SDS011;10632;51.276;7.116;2024-03-08T10:10:33;8.10;;;2.97;;
20945;SDS011;10632;51.276;7.116;2024-03-08T10:13:02;11.85;;;3.53;;
20945;SDS011;10632;51.276;7.116;2024-03-08T10:15:32;9.40;;;2.90;;
20945;SDS011;10632;51.276;7.116;2024-03-08T10:18:00;12.63;;;3.35;;
20945;SDS011;10632;51.276;7.116;2024-03-08T10:20:32;13.85;;;3.60;;
20945;SDS011;10632;51.276;7.116;2024-03-08T10:22:59;12.93;;;3.72;;
20945;SDS011;10632;51.276;7.116;2024-03-08T10:25:28;9.23;;;3.10;;
20945;SDS011;10632;51.276;7.116;2024-03-08T10:27:56;14.80;;;3.45;;
20945;SDS011;10632;51.276;7.116;2024-03-08T10:30:25;11.13;;;3.30;;
20945;SDS011;10632;51.276;7.116;2024-03-08T10:32:53;13.75;;;3.45;;
20945;SDS011;10632;51.276;7.116;2024-03-08T10:35:25;8.15;;;2.90;;
20945;SDS011;10632;51.276;7.116;2024-03-08T10:38:03;9.60;;;3.28;;
20945;SDS011;10632;51.276;7.116;2024-03-08T10:40:42;8.13;;;2.95;;
20945;SDS011;10632;51.276;7.116;2024-03-08T10:43:12;10.45;;;3.50;;
20945;SDS011;10632;51.276;7.116;2024-03-08T10:45:59;7.75;;;3.05;;
20945;SDS011;10632;51.276;7.116;2024-03-08T10:48:48;11.25;;;3.50;;
20945;SDS011;10632;51.276;7.116;2024-03-08T10:54:36;10.75;;;3.28;;
20945;SDS011;10632;51.276;7.116;2024-03-08T10:57:13;10.07;;;3.55;;
20945;SDS011;10632;51.276;7.116;2024-03-08T11:06:13;10.90;;;3.28;;
20945;SDS011;10632;51.276;7.116;2024-03-08T11:08:43;8.27;;;3.03;;
20945;SDS011;10632;51.276;7.116;2024-03-08T11:11:29;10.68;;;3.53;;
20945;SDS011;10632;51.276;7.116;2024-03-08T11:13:57;12.32;;;3.80;;
20945;SDS011;10632;51.276;7.116;2024-03-08T11:16:37;14.30;;;4.30;;
20945;SDS011;10632;51.276;7.116;2024-03-08T11:19:22;12.43;;;3.83;;
20945;SDS011;10632;51.276;7.116;2024-03-08T11:21:56;12.43;;;3.80;;
20945;SDS011;10632;51.276;7.116;2024-03-08T11:24:32;9.77;;;3.20;;
20945;SDS011;10632;51.276;7.116;2024-03-08T11:27:04;10.57;;;3.80;;
20945;SDS011;10632;51.276;7.116;2024-03-08T11:29:35;11.02;;;3.83;;
20945;SDS011;10632;51.276;7.116;2024-03-08T11:32:05;11.98;;;3.95;;
20945;SDS011;10632;51.276;7.116;2024-03-08T11:34:36;10.85;;;4.13;;
20945;SDS011;10632;51.276;7.116;2024-03-08T11:37:06;12.75;;;3.65;;
20945;SDS011;10632;51.276;7.116;2024-03-08T11:39:41;10.52;;;3.53;;
20945;SDS011;10632;51.276;7.116;2024-03-08T11:42:14;10.73;;;3.58;;
20945;SDS011;10632;51.276;7.116;2024-03-08T11:44:42;11.75;;;3.63;;
20945;SDS011;10632;51.276;7.116;2024-03-08T11:47:09;9.38;;;3.35;;
20945;SDS011;10632;51.276;7.116;2024-03-08T11:49:37;10.10;;;3.35;;
20945;SDS011;10632;51.276;7.116;2024-03-08T11:52:04;9.02;;;2.50;;
20945;SDS011;10632;51.276;7.116;2024-03-08T11:54:32;8.32;;;3.13;;
20945;SDS011;10632;51.276;7.116;2024-03-08T11:57:00;9.52;;;3.30;;
20945;SDS011;10632;51.276;7.116;2024-03-08T11:59:30;13.80;;;3.78;;
20945;SDS011;10632;51.276;7.116;2024-03-08T12:01:58;10.00;;;3.55;;
20945;SDS011;10632;51.276;7.116;2024-03-08T12:04:28;10.57;;;3.55;;
20945;SDS011;10632;51.276;7.116;2024-03-08T12:06:56;10.10;;;3.60;;
20945;SDS011;10632;51.276;7.116;2024-03-08T12:09:26;11.75;;;3.80;;
20945;SDS011;10632;51.276;7.116;2024-03-08T12:11:53;11.57;;;3.75;;
20945;SDS011;10632;51.276;7.116;2024-03-08T12:14:21;9.63;;;3.28;;
20945;SDS011;10632;51.276;7.116;2024-03-08T12:16:50;8.85;;;3.13;;
20945;SDS011;10632;51.276;7.116;2024-03-08T12:19:17;14.75;;;3.15;;
20945;SDS011;10632;51.276;7.116;2024-03-08T12:21:44;8.65;;;3.20;;
20945;SDS011;10632;51.276;7.116;2024-03-08T12:24:14;9.75;;;3.20;;
20945;SDS011;10632;51.276;7.116;2024-03-08T12:26:44;10.05;;;2.95;;
20945;SDS011;10632;51.276;7.116;2024-03-08T12:29:20;11.98;;;3.28;;
20945;SDS011;10632;51.276;7.116;2024-03-08T12:31:53;11.68;;;3.10;;
20945;SDS011;10632;51.276;7.116;2024-03-08T12:34:20;9.55;;;3.10;;
20945;SDS011;10632;51.276;7.116;2024-03-08T12:36:48;10.20;;;3.20;;
20945;SDS011;10632;51.276;7.116;2024-03-08T12:39:17;8.32;;;2.97;;
20945;SDS011;10632;51.276;7.116;2024-03-08T12:41:47;8.82;;;3.15;;
20945;SDS011;10632;51.276;7.116;2024-03-08T12:44:16;11.10;;;3.60;;
20945;SDS011;10632;51.276;7.116;2024-03-08T12:46:45;9.50;;;3.00;;
20945;SDS011;10632;51.276;7.116;2024-03-08T12:49:13;9.07;;;2.85;;
20945;SDS011;10632;51.276;7.116;2024-03-08T12:51:42;9.30;;;2.90;;
20945;SDS011;10632;51.276;7.116;2024-03-08T12:54:10;9.52;;;3.30;;
20945;SDS011;10632;51.276;7.116;2024-03-08T12:56:37;7.72;;;2.95;;
20945;SDS011;10632;51.276;7.116;2024-03-08T12:59:05;9.10;;;3.40;;
20945;SDS011;10632;51.276;7.116;2024-03-08T13:01:34;12.15;;;3.03;;
20945;SDS011;10632;51.276;7.116;2024-03-08T13:04:04;8.65;;;3.22;;
20945;SDS011;10632;51.276;7.116;2024-03-08T13:06:34;8.30;;;3.13;;
20945;SDS011;10632;51.276;7.116;2024-03-08T13:09:01;8.82;;;3.28;;
20945;SDS011;10632;51.276;7.116;2024-03-08T13:11:30;11.35;;;3.42;;
20945;SDS011;10632;51.276;7.116;2024-03-08T13:14:01;11.57;;;3.70;;
20945;SDS011;10632;51.276;7.116;2024-03-08T13:16:30;9.80;;;3.60;;
20945;SDS011;10632;51.276;7.116;2024-03-08T13:18:58;8.73;;;3.08;;
20945;SDS011;10632;51.276;7.116;2024-03-08T13:21:26;7.80;;;3.28;;
20945;SDS011;10632;51.276;7.116;2024-03-08T13:23:55;9.50;;;2.92;;
20945;SDS011;10632;51.276;7.116;2024-03-08T13:26:24;9.80;;;3.08;;
20945;SDS011;10632;51.276;7.116;2024-03-08T13:28:57;8.50;;;2.80;;
20945;SDS011;10632;51.276;7.116;2024-03-08T13:31:24;10.52;;;3.28;;
20945;SDS011;10632;51.276;7.116;2024-03-08T13:33:51;9.88;;;3.63;;
20945;SDS011;10632;51.276;7.116;2024-03-08T13:36:23;8.88;;;3.15;;
20945;SDS011;10632;51.276;7.116;2024-03-08T13:38:54;11.27;;;3.35;;
20945;SDS011;10632;51.276;7.116;2024-03-08T13:41:24;8.25;;;3.13;;
20945;SDS011;10632;51.276;7.116;2024-03-08T13:43:51;8.75;;;3.05;;
20945;SDS011;10632;51.276;7.116;2024-03-08T13:46:20;7.47;;;2.78;;
20945;SDS011;10632;51.276;7.116;2024-03-08T13:48:49;11.38;;;3.25;;
20945;SDS011;10632;51.276;7.116;2024-03-08T13:51:18;8.30;;;3.03;;
20945;SDS011;10632;51.276;7.116;2024-03-08T13:53:49;10.02;;;3.55;;
20945;SDS011;10632;51.276;7.116;2024-03-08T13:56:16;11.73;;;3.50;;
20945;SDS011;10632;51.276;7.116;2024-03-08T13:58:43;11.07;;;3.38;;
20945;SDS011;10632;51.276;7.116;2024-03-08T14:01:10;9.57;;;3.60;;
20945;SDS011;10632;51.276;7.116;2024-03-08T14:03:37;11.45;;;3.67;;
20945;SDS011;10632;51.276;7.116;2024-03-08T14:06:06;13.13;;;3.70;;
20945;SDS011;10632;51.276;7.116;2024-03-08T14:08:34;11.95;;;3.40;;
20945;SDS011;10632;51.276;7.116;2024-03-08T14:11:04;14.02;;;4.00;;
20945;SDS011;10632;51.276;7.116;2024-03-08T14:13:40;11.23;;;3.70;;
20945;SDS011;10632;51.276;7.116;2024-03-08T14:16:09;14.23;;;4.45;;
20945;SDS011;10632;51.276;7.116;2024-03-08T14:18:36;12.02;;;3.70;;
20945;SDS011;10632;51.276;7.116;2024-03-08T14:21:03;11.00;;;3.78;;
20945;SDS011;10632;51.276;7.116;2024-03-08T14:23:30;9.13;;;3.00;;
20945;SDS011;10632;51.276;7.116;2024-03-08T14:25:58;10.13;;;3.50;;
20945;SDS011;10632;51.276;7.116;2024-03-08T14:28:26;13.60;;;3.63;;
20945;SDS011;10632;51.276;7.116;2024-03-08T14:30:53;11.23;;;4.00;;
20945;SDS011;10632;51.276;7.116;2024-03-08T14:33:20;11.48;;;4.25;;
20945;SDS011;10632;51.276;7.116;2024-03-08T14:35:48;10.90;;;3.47;;
20945;SDS011;10632;51.276;7.116;2024-03-08T14:38:15;10.60;;;3.53;;
20945;SDS011;10632;51.276;7.116;2024-03-08T14:40:42;11.73;;;3.40;;
20945;SDS011;10632;51.276;7.116;2024-03-08T14:43:12;11.70;;;3.75;;
20945;SDS011;10632;51.276;7.116;2024-03-08T14:45:41;10.65;;;3.67;;
20945;SDS011;10632;51.276;7.116;2024-03-08T14:48:12;8.90;;;3.13;;
20945;SDS011;10632;51.276;7.116;2024-03-08T14:50:39;15.77;;;4.00;;
20945;SDS011;10632;51.276;7.116;2024-03-08T14:53:09;9.32;;;3.45;;
20945;SDS011;10632;51.276;7.116;2024-03-08T14:55:37;11.70;;;3.80;;
20945;SDS011;10632;51.276;7.116;2024-03-08T14:58:07;12.25;;;3.97;;
20945;SDS011;10632;51.276;7.116;2024-03-08T15:00:34;12.18;;;3.60;;
20945;SDS011;10632;51.276;7.116;2024-03-08T15:03:04;10.70;;;3.60;;
20945;SDS011;10632;51.276;7.116;2024-03-08T15:05:32;12.35;;;3.40;;
20945;SDS011;10632;51.276;7.116;2024-03-08T15:08:03;10.65;;;3.60;;
20945;SDS011;10632;51.276;7.116;2024-03-08T15:10:34;11.73;;;3.90;;
20945;SDS011;10632;51.276;7.116;2024-03-08T15:13:01;11.30;;;3.90;;
20945;SDS011;10632;51.276;7.116;2024-03-08T15:15:39;13.82;;;3.75;;